Time;durP1;ratioP1;P1;durP2;ratioP2;P2;SDS_P1;SDS_P2;PMS_P1;PMS_P2;Temp;Humidity;BMP_temperature;BMP_pressure;BME280_temperature;BME280_humidity;BME280_pressure;Samples;Min_cycle;Max_cycle;Signal;HPM_P1;HPM_P2
2022/09/22 00:01:08;;;;;;;8.57;3.60;;;;;;;11.64;70.22;100721.72;5023730;28;20064;-80
2022/09/22 00:03:35;;;;;;;5.55;3.00;;;;;;;11.52;70.93;100710.31;5027520;28;20465;-78
2022/09/22 00:06:09;;;;;;;10.70;3.70;;;;;;;10.87;71.23;100599.03;5026807;28;20045;-79
2022/09/22 00:08:35;;;;;;;;;;;;;;;11.67;69.11;100711.19;5027689;28;20064;-80
2022/09/22 00:11:07;;;;;;;6.65;3.20;;;;;;;11.00;71.15;100618.28;5026717;28;19917;-81
2022/09/22 00:13:35;;;;;;;5.63;2.95;;;;;;;10.70;71.35;100593.75;5008836;28;20406;-80
2022/09/22 00:16:01;;;;;;;6.50;3.17;;;;;;;10.77;71.46;100590.25;5008740;28;20073;-81
2022/09/22 00:18:29;;;;;;;8.30;4.00;;;;;;;11.48;71.94;100715.56;5025951;28;20045;-81
2022/09/22 00:20:54;;;;;;;8.40;3.65;;;;;;;11.47;71.60;100724.28;5022436;28;20070;-79
2022/09/22 00:23:25;;;;;;;6.28;3.13;;;;;;;10.43;71.34;100538.56;5010871;28;20075;-81
2022/09/22 00:25:50;;;;;;;6.97;3.92;;;;;;;11.49;71.34;100706.78;5020648;28;20111;-80
2022/09/22 00:28:16;;;;;;;5.88;3.00;;;;;;;11.55;71.27;100709.44;5027017;28;20478;-79
2022/09/22 00:30:42;;;;;;;7.15;3.10;;;;;;;11.66;70.72;100722.56;5027508;28;20061;-80
2022/09/22 00:33:09;;;;;;;6.88;3.75;;;;;;;10.64;70.67;100566.59;5026917;28;20058;-81
2022/09/22 00:35:37;;;;;;;7.15;4.20;;;;;;;10.63;71.21;100573.59;5027271;28;20048;-80
2022/09/22 00:38:06;;;;;;;8.48;3.17;;;;;;;11.25;71.92;100695.38;5030508;28;20048;-80
2022/09/22 00:40:34;;;;;;;4.80;2.72;;;;;;;10.71;71.23;100578.88;5030587;28;20060;-80
2022/09/22 00:43:18;;;;;;;5.00;3.33;;;;;;;11.51;71.00;100703.28;5030602;28;20499;-81
2022/09/22 00:45:46;;;;;;;6.18;3.25;;;;;;;10.69;70.43;100567.47;5030965;28;20034;-79
2022/09/22 00:48:11;;;;;;;7.15;3.95;;;;;;;11.51;70.78;100697.16;5030832;28;20050;-80
2022/09/22 00:50:37;;;;;;;8.77;4.03;;;;;;;11.65;70.91;100705.91;5028340;28;20045;-80
2022/09/22 00:53:11;;;;;;;12.20;3.70;;;;;;;11.61;72.07;100709.41;5010579;28;20492;-80
2022/09/22 00:55:43;;;;;;;5.35;3.03;;;;;;;11.32;72.92;100683.13;5026905;28;20045;-80
2022/09/22 00:58:13;;;;;;;7.50;3.75;;;;;;;10.47;73.09;100546.44;5012454;28;20026;-81
2022/09/22 01:00:39;;;;;;;6.82;3.38;;;;;;;11.37;73.45;100705.88;5030396;28;20116;-80
2022/09/22 01:03:08;;;;;;;8.73;4.47;;;;;;;10.90;73.84;100624.41;5030687;28;20053;-79
2022/09/22 01:05:35;;;;;;;7.45;3.30;;;;;;;10.55;73.89;100570.94;5012234;28;20124;-80
2022/09/22 01:08:02;;;;;;;7.38;3.15;;;;;;;11.44;73.66;100713.78;5030265;28;20391;-81
2022/09/22 01:10:27;;;;;;;7.00;4.00;;;;;;;10.61;73.85;100561.34;5012125;28;20398;-79
2022/09/22 01:13:11;;;;;;;6.60;3.80;;;;;;;11.39;73.71;100696.25;5030288;28;20048;-81
2022/09/22 01:15:52;;;;;;;10.35;4.38;;;;;;;10.57;74.76;100594.56;5031098;28;20041;-80
2022/09/22 01:18:27;;;;;;;6.32;3.40;;;;;;;11.15;75.64;100707.59;5010374;28;20472;-80
2022/09/22 01:21:05;;;;;;;6.75;3.95;;;;;;;11.17;75.46;100712.88;5026617;28;20229;-80
2022/09/22 01:24:21;;;;;;;6.63;3.13;;;;;;;11.31;75.03;100708.53;5015742;28;20037;-80
2022/09/22 01:27:24;;;;;;;8.65;3.83;;;;;;;11.25;75.27;100710.25;4989983;28;20049;-81
2022/09/22 01:30:16;;;;;;;6.93;3.88;;;;;;;11.30;75.67;100716.38;5043879;28;20190;-81
2022/09/22 01:32:59;;;;;;;8.63;3.85;;;;;;;10.96;76.36;100680.44;5049649;28;20053;-80
2022/09/22 01:35:31;;;;;;;8.80;3.88;;;;;;;10.43;76.36;100599.78;5049422;28;20080;-79
2022/09/22 01:38:02;;;;;;;9.63;3.85;;;;;;;11.01;76.15;100711.94;5049593;28;20053;-78
2022/09/22 01:40:51;;;;;;;10.95;3.30;;;;;;;10.86;76.56;100709.25;5049253;28;20090;-80
2022/09/22 01:43:41;;;;;;;8.02;3.88;;;;;;;10.85;76.84;100718.88;5049262;28;20040;-80
2022/09/22 01:46:19;;;;;;;7.20;4.22;;;;;;;10.87;77.38;100708.41;5049280;28;20086;-78
2022/09/22 01:48:56;;;;;;;8.48;4.55;;;;;;;10.86;77.72;100712.75;5028277;28;20049;-79
2022/09/22 01:51:28;;;;;;;6.45;3.58;;;;;;;10.86;77.11;100690.88;5004370;28;20026;-79
2022/09/22 01:54:01;;;;;;;7.32;3.92;;;;;;;10.96;76.80;100703.19;5011804;28;20086;-80
2022/09/22 01:56:30;;;;;;;9.50;4.43;;;;;;;10.30;77.14;100605.81;5029290;28;20095;-79
2022/09/22 01:59:01;;;;;;;8.50;4.47;;;;;;;10.00;78.04;100567.22;5029238;28;20140;-79
2022/09/22 02:01:38;;;;;;;12.95;5.13;;;;;;;10.75;77.72;100693.50;5028751;28;20037;-80
2022/09/22 02:04:15;;;;;;;12.13;4.13;;;;;;;10.73;77.09;100676.84;5028872;28;20053;-79
2022/09/22 02:06:51;;;;;;;6.97;3.80;;;;;;;10.02;77.26;100566.38;5022627;28;20643;-78
2022/09/22 02:09:20;;;;;;;12.05;5.07;;;;;;;10.00;77.80;100562.00;5009322;28;20046;-80
2022/09/22 02:11:46;;;;;;;8.65;3.83;;;;;;;10.23;76.86;100593.53;5009223;28;20049;-79
2022/09/22 02:14:13;;;;;;;22.75;5.55;;;;;;;10.31;77.09;100602.34;4991311;28;20040;-79
2022/09/22 02:16:38;;;;;;;7.88;4.00;;;;;;;9.95;78.38;100569.81;4991293;28;20860;-80
2022/09/22 02:19:07;;;;;;;9.60;4.80;;;;;;;10.74;79.03;100718.84;5007211;28;20041;-80
2022/09/22 02:21:33;;;;;;;7.55;3.47;;;;;;;10.75;78.52;100715.34;5000649;28;20030;-80
2022/09/22 02:23:59;;;;;;;7.53;3.78;;;;;;;9.66;79.62;100559.16;4996795;28;20053;-81
2022/09/22 02:26:29;;;;;;;11.05;4.20;;;;;;;10.41;77.79;100681.97;5007367;28;20153;-78
2022/09/22 02:29:00;;;;;;;8.43;4.28;;;;;;;10.17;75.89;100610.13;5008867;28;20057;-78
2022/09/22 02:31:30;;;;;;;8.23;4.35;;;;;;;9.89;76.16;100572.41;5019848;28;20038;-76
2022/09/22 02:33:56;;;;;;;9.75;4.95;;;;;;;10.69;77.60;100741.56;5031112;28;20036;-77
2022/09/22 02:36:57;;;;;;;10.02;3.45;;;;;;;10.57;77.77;100737.13;5021671;28;20041;-79
2022/09/22 02:39:38;;;;;;;7.40;3.80;;;;;;;10.18;77.50;100650.31;5003615;28;20053;-80
2022/09/22 02:42:35;;;;;;;9.90;3.97;;;;;;;10.38;77.40;100735.28;5008524;28;20049;-79
2022/09/22 02:45:16;;;;;;;7.40;4.53;;;;;;;9.66;77.81;100604.56;4987493;28;20526;-80
2022/09/22 02:47:56;;;;;;;9.65;4.85;;;;;;;9.38;77.92;100563.34;4989244;28;20050;-81
2022/09/22 02:50:23;;;;;;;12.80;4.20;;;;;;;10.45;75.95;100723.09;4989428;28;20196;-79
2022/09/22 02:52:57;;;;;;;10.02;4.00;;;;;;;10.07;76.41;100697.47;4989621;28;20502;-80
2022/09/22 02:55:23;;;;;;;12.35;5.10;;;;;;;9.66;75.68;100581.00;5002871;28;20038;-81
2022/09/22 02:57:50;;;;;;;6.82;3.97;;;;;;;9.99;75.36;100644.97;5009164;28;20041;-80
2022/09/22 03:00:15;;;;;;;8.88;4.60;;;;;;;10.59;74.78;100736.28;5015490;28;20057;-80
2022/09/22 03:02:41;;;;;;;12.02;3.85;;;;;;;10.32;74.33;100693.28;5027926;28;20041;-80
2022/09/22 03:05:06;;;;;;;7.65;4.13;;;;;;;10.49;74.43;100719.63;5026417;28;20049;-82
2022/09/22 03:07:32;;;;;;;7.63;4.43;;;;;;;9.89;73.49;100616.97;5027516;28;20045;-80
2022/09/22 03:09:57;;;;;;;7.70;4.57;;;;;;;9.73;73.82;100598.50;5025991;28;20480;-79
2022/09/22 03:12:23;;;;;;;8.82;4.07;;;;;;;10.52;73.57;100740.63;5028088;28;20553;-79
2022/09/22 03:14:51;;;;;;;7.10;4.45;;;;;;;10.25;73.08;100700.19;5009721;28;20188;-80
2022/09/22 03:17:17;;;;;;;8.07;4.40;;;;;;;10.08;73.72;100673.88;5025781;28;20049;-80
2022/09/22 03:19:42;;;;;;;7.47;4.25;;;;;;;10.38;74.00;100718.69;5028167;28;20037;-78
2022/09/22 03:22:08;;;;;;;8.35;4.60;;;;;;;9.86;74.13;100645.78;5005530;28;20056;-81
2022/09/22 03:24:33;;;;;;;7.55;3.70;;;;;;;10.41;76.29;100742.28;5021662;28;20029;-79
2022/09/22 03:26:59;;;;;;;9.00;4.63;;;;;;;10.28;76.26;100710.75;5027445;28;20101;-80
2022/09/22 03:29:24;;;;;;;24.23;5.60;;;;;;;9.61;76.48;100623.75;5009558;28;20053;-80
2022/09/22 03:31:50;;;;;;;15.00;4.18;;;;;;;10.27;73.87;100726.44;5009949;28;20049;-80
2022/09/22 03:34:15;;;;;;;8.27;5.10;;;;;;;9.48;73.67;100600.09;5027521;28;20124;-81
2022/09/22 03:36:41;;;;;;;7.43;4.40;;;;;;;10.28;73.80;100730.81;5027599;28;20116;-80
2022/09/22 03:39:06;;;;;;;6.47;3.97;;;;;;;9.77;73.46;100637.84;5016245;28;20568;-80
2022/09/22 03:41:32;;;;;;;7.57;4.38;;;;;;;10.17;74.76;100714.16;5026954;28;20057;-80
2022/09/22 03:43:58;;;;;;;15.55;5.45;;;;;;;10.02;77.00;100700.06;5027186;28;20473;-79
2022/09/22 03:46:25;;;;;;;9.82;4.60;;;;;;;10.07;77.67;100726.31;5027372;28;20037;-79
2022/09/22 03:48:51;;;;;;;12.10;4.63;;;;;;;9.12;78.32;100579.72;5027515;28;20560;-80
2022/09/22 03:51:17;;;;;;;10.88;5.35;;;;;;;9.90;79.07;100716.59;5021704;28;20069;-80
2022/09/22 03:53:43;;;;;;;10.40;4.82;;;;;;;9.80;79.36;100709.50;5008432;28;20054;-79
2022/09/22 03:56:11;;;;;;;10.70;5.75;;;;;;;10.00;79.40;100732.38;5027605;28;20540;-80
2022/09/22 03:58:37;;;;;;;11.88;5.22;;;;;;;10.10;79.45;100739.44;5027022;28;20055;-79
2022/09/22 04:01:04;;;;;;;10.65;6.15;;;;;;;9.17;79.35;100588.50;5013890;28;20050;-78
2022/09/22 04:03:30;;;;;;;10.77;5.47;;;;;;;9.15;79.94;100598.06;5007777;28;20060;-79
2022/09/22 04:05:55;;;;;;;17.17;6.68;;;;;;;10.04;80.02;100747.25;5007299;28;20502;-80
2022/09/22 04:08:22;;;;;;;11.48;6.00;;;;;;;9.67;80.59;100708.53;5007476;28;20038;-80
2022/09/22 04:10:47;;;;;;;14.05;5.60;;;;;;;9.88;80.54;100748.88;5006889;28;20052;-78
2022/09/22 04:13:13;;;;;;;21.38;5.70;;;;;;;9.13;81.54;100630.34;5006952;28;20046;-80
2022/09/22 04:15:39;;;;;;;15.18;7.18;;;;;;;9.16;80.24;100601.59;4996844;28;20559;-79
2022/09/22 04:18:04;;;;;;;11.48;6.70;;;;;;;9.83;80.42;100732.22;4988343;28;20057;-80
2022/09/22 04:20:30;;;;;;;11.10;5.95;;;;;;;10.15;80.60;100758.69;4987089;28;20137;-79
2022/09/22 04:22:56;;;;;;;11.82;6.30;;;;;;;10.13;80.00;100756.06;4988012;28;20132;-79
2022/09/22 04:25:23;;;;;;;14.07;5.53;;;;;;;10.04;80.56;100769.09;5006625;28;20046;-77
2022/09/22 04:27:49;;;;;;;9.55;4.70;;;;;;;9.94;80.88;100751.53;5007105;28;20029;-79
2022/09/22 04:30:14;;;;;;;9.07;5.78;;;;;;;9.77;79.47;100714.72;4988968;28;20489;-80
2022/09/22 04:32:40;;;;;;;14.90;5.85;;;;;;;9.92;78.47;100730.56;5006529;28;20046;-79
2022/09/22 04:35:06;;;;;;;8.77;5.63;;;;;;;9.96;78.37;100720.13;5006442;28;20108;-80
2022/09/22 04:37:32;;;;;;;11.15;4.97;;;;;;;9.38;78.49;100602.63;5006726;28;20065;-80
2022/09/22 04:39:59;;;;;;;11.90;5.22;;;;;;;10.30;78.20;100758.84;4988727;28;20413;-80
2022/09/22 04:42:24;;;;;;;10.57;6.22;;;;;;;9.48;77.23;100593.97;5007096;28;20434;-79
2022/09/22 04:44:50;;;;;;;13.48;5.97;;;;;;;10.32;77.44;100732.63;5006630;28;20042;-80
2022/09/22 04:47:16;;;;;;;11.95;6.07;;;;;;;10.47;77.60;100737.97;5006298;28;20049;-79
2022/09/22 04:49:41;;;;;;;12.88;6.03;;;;;;;9.90;77.73;100626.56;5006663;28;20050;-80
2022/09/22 04:52:06;;;;;;;11.60;4.85;;;;;;;9.66;77.88;100580.13;4993224;28;20368;-80
2022/09/22 04:54:32;;;;;;;10.70;4.78;;;;;;;10.67;78.03;100743.28;4994438;28;20618;-80
2022/09/22 04:56:58;;;;;;;10.85;5.45;;;;;;;10.52;77.83;100733.63;5005775;28;20120;-81
2022/09/22 04:59:25;;;;;;;9.32;5.28;;;;;;;10.52;77.24;100710.00;4988439;28;20097;-80
2022/09/22 05:01:50;;;;;;;9.60;5.15;;;;;;;9.92;77.80;100578.53;5008197;28;20453;-80
2022/09/22 05:04:17;;;;;;;14.45;5.85;;;;;;;9.90;76.96;100559.31;5005911;28;20046;-82
2022/09/22 05:06:42;;;;;;;12.20;4.90;;;;;;;9.90;75.99;100571.53;5006907;28;20104;-81
2022/09/22 05:09:08;;;;;;;17.90;9.25;;;;;;;10.77;75.43;100721.50;5007883;28;20050;-81
2022/09/22 05:11:33;;;;;;;8.65;5.05;;;;;;;10.93;74.69;100727.69;5005893;28;20134;-79
2022/09/22 05:13:59;;;;;;;12.68;5.40;;;;;;;10.19;73.88;100600.53;5006052;28;20052;-82
2022/09/22 05:16:25;;;;;;;12.63;5.75;;;;;;;11.08;74.43;100747.84;4997303;28;20050;-82
2022/09/22 05:18:50;;;;;;;10.38;5.63;;;;;;;11.14;74.80;100755.78;4985009;28;20602;-78
2022/09/22 05:21:20;;;;;;;15.32;5.68;;;;;;;11.18;75.40;100743.50;4975354;28;20116;-81
2022/09/22 05:23:45;;;;;;;9.55;5.80;;;;;;;11.20;76.05;100752.28;5008579;28;20073;-81
2022/09/22 05:26:11;;;;;;;10.65;5.65;;;;;;;11.25;76.60;100760.16;4992335;28;20418;-79
2022/09/22 05:28:36;;;;;;;11.20;5.50;;;;;;;11.24;75.98;100768.91;5009862;28;20121;-80
2022/09/22 05:31:02;;;;;;;7.95;5.40;;;;;;;10.67;75.82;100648.81;5032561;28;20038;-76
2022/09/22 05:33:34;;;;;;;18.08;6.05;;;;;;;11.38;74.62;100756.72;5035506;28;20014;-77
2022/09/22 05:36:00;;;;;;;22.27;5.13;;;;;;;10.82;74.73;100653.25;5012102;28;20061;-79
2022/09/22 05:38:26;;;;;;;25.23;6.43;;;;;;;11.41;75.52;100733.06;5010329;28;20042;-80
2022/09/22 05:40:51;;;;;;;11.80;7.40;;;;;;;11.45;77.26;100723.41;5008052;28;20053;-77
2022/09/22 05:43:17;;;;;;;9.43;5.25;;;;;;;11.69;75.39;100719.94;5009705;28;20052;-81
2022/09/22 05:45:43;;;;;;;12.18;6.13;;;;;;;11.43;75.17;100670.00;5010410;28;20556;-79
2022/09/22 05:48:09;;;;;;;11.43;5.50;;;;;;;11.32;72.68;100639.31;5009593;28;20516;-80
2022/09/22 05:50:34;;;;;;;12.23;6.72;;;;;;;11.31;73.34;100607.81;5008714;28;20046;-80
2022/09/22 05:53:05;;;;;;;16.08;7.40;;;;;;;11.40;71.45;100620.94;5007561;28;20112;-80
2022/09/22 05:55:32;;;;;;;15.55;4.93;;;;;;;11.57;71.58;100628.84;5008963;28;20058;-82
2022/09/22 05:57:59;;;;;;;18.20;7.55;;;;;;;12.25;71.75;100750.63;4993039;28;20076;-80
2022/09/22 06:00:25;;;;;;;9.88;4.55;;;;;;;11.66;70.14;100622.66;5010354;28;20073;-81
2022/09/22 06:02:50;;;;;;;21.85;8.13;;;;;;;12.38;69.80;100757.59;5009114;28;20140;-81
2022/09/22 06:05:16;;;;;;;11.52;6.10;;;;;;;12.46;69.71;100752.34;5008987;28;20352;-80
2022/09/22 06:07:41;;;;;;;11.32;4.80;;;;;;;12.32;69.42;100718.16;5009017;28;20050;-81
2022/09/22 06:10:10;;;;;;;8.63;4.55;;;;;;;12.79;68.83;100755.75;5006819;28;20038;-81
2022/09/22 06:12:36;;;;;;;18.58;5.25;;;;;;;12.01;67.00;100602.50;5009604;28;20038;-80
2022/09/22 06:15:02;;;;;;;10.18;4.95;;;;;;;12.65;67.49;100696.13;5008653;28;20509;-81
2022/09/22 06:17:28;;;;;;;10.82;4.03;;;;;;;12.58;66.36;100702.28;5006782;28;20215;-81
2022/09/22 06:19:53;;;;;;;9.68;4.47;;;;;;;12.62;67.66;100725.09;5008682;28;20129;-80
2022/09/22 06:22:20;;;;;;;7.13;4.18;;;;;;;12.89;66.52;100754.84;4994542;28;20038;-80
2022/09/22 06:24:46;;;;;;;13.10;4.35;;;;;;;12.45;66.49;100679.53;5007950;28;20038;-80
2022/09/22 06:27:12;;;;;;;8.35;4.60;;;;;;;13.03;65.67;100765.31;5008718;28;20054;-79
2022/09/22 06:29:37;;;;;;;8.65;4.22;;;;;;;12.25;66.05;100648.88;5007731;28;20426;-82
2022/09/22 06:32:06;;;;;;;7.93;4.15;;;;;;;12.95;66.02;100746.06;5008278;28;20058;-81
2022/09/22 06:34:32;;;;;;;13.00;4.40;;;;;;;12.95;66.78;100722.34;5008391;28;20052;-80
2022/09/22 06:36:59;;;;;;;7.85;4.28;;;;;;;12.46;67.56;100616.34;5008011;28;20030;-80
2022/09/22 06:39:24;;;;;;;16.48;5.45;;;;;;;13.17;65.63;100765.25;5008906;28;20490;-79
2022/09/22 06:41:50;;;;;;;15.13;4.32;;;;;;;13.01;67.22;100736.34;5008389;28;20050;-80
2022/09/22 06:44:15;;;;;;;9.85;3.42;;;;;;;12.60;67.12;100650.50;5007914;28;20081;-82
2022/09/22 06:46:41;;;;;;;6.50;4.43;;;;;;;12.93;65.19;100679.34;5007849;28;20057;-79
2022/09/22 06:49:07;;;;;;;11.38;5.40;;;;;;;12.89;63.04;100660.88;5006301;28;20482;-79
2022/09/22 06:51:34;;;;;;;8.05;3.97;;;;;;;13.05;62.53;100656.41;5000482;28;20438;-80
2022/09/22 06:54:03;;;;;;;17.00;8.35;;;;;;;12.99;62.71;100616.06;4973374;28;20045;-80
2022/09/22 06:56:33;;;;;;;16.08;3.78;;;;;;;13.25;63.26;100636.94;5007574;28;20085;-82
2022/09/22 06:58:59;;;;;;;6.28;4.47;;;;;;;13.07;60.51;100638.84;5007479;28;20046;-81
2022/09/22 07:01:28;;;;;;;6.50;3.38;;;;;;;14.07;60.44;100771.69;5008259;28;20046;-79
2022/09/22 07:03:53;;;;;;;5.47;2.45;;;;;;;14.30;59.82;100772.34;5007768;28;20033;-81
2022/09/22 07:06:18;;;;;;;8.10;3.85;;;;;;;13.65;60.76;100620.84;5008368;28;20036;-81
2022/09/22 07:08:46;;;;;;;7.72;2.88;;;;;;;14.63;59.46;100762.38;5007541;28;20054;-80
2022/09/22 07:11:13;;;;;;;14.60;3.50;;;;;;;13.94;58.31;100645.16;5001349;28;20422;-81
2022/09/22 07:13:41;;;;;;;5.75;3.00;;;;;;;14.80;58.56;100762.22;4990143;28;20053;-81
2022/09/22 07:16:17;;;;;;;12.48;5.50;;;;;;;14.34;58.75;100660.56;5007435;28;20054;-79
2022/09/22 07:18:48;;;;;;;5.75;2.97;;;;;;;14.79;57.90;100739.31;5004651;28;20064;-81
2022/09/22 07:21:19;;;;;;;6.85;3.45;;;;;;;14.27;58.72;100643.06;4985808;28;20164;-81
2022/09/22 07:23:48;;;;;;;6.70;3.00;;;;;;;14.16;58.25;100613.28;4993535;28;20061;-80
2022/09/22 07:26:16;;;;;;;9.05;2.72;;;;;;;14.19;56.74;100602.69;5007522;28;20054;-79
2022/09/22 07:28:42;;;;;;;5.95;3.47;;;;;;;15.23;56.87;100764.28;5007523;28;20494;-80
2022/09/22 07:31:13;;;;;;;5.50;2.67;;;;;;;14.93;57.16;100688.94;5008013;28;20088;-81
2022/09/22 07:33:41;;;;;;;9.32;4.05;;;;;;;14.62;55.58;100646.22;4990516;28;20124;-80
2022/09/22 07:36:09;;;;;;;8.10;2.40;;;;;;;15.27;56.22;100773.94;5007579;28;20128;-82
2022/09/22 07:38:43;;;;;;;6.57;2.90;;;;;;;14.70;56.28;100650.50;5005727;28;20045;-79
2022/09/22 07:41:11;;;;;;;3.08;1.65;;;;;;;15.47;54.68;100765.72;5007926;28;20049;-80
2022/09/22 07:43:38;;;;;;;3.25;1.88;;;;;;;15.31;55.17;100773.00;5007199;28;20069;-81
2022/09/22 07:46:04;;;;;;;5.30;2.17;;;;;;;15.13;55.77;100784.69;5006803;28;20042;-82
2022/09/22 07:48:36;;;;;;;4.22;2.30;;;;;;;14.69;54.88;100666.34;4990390;28;20768;-80
2022/09/22 07:51:23;;;;;;;9.30;2.67;;;;;;;14.96;54.76;100724.13;4985295;28;20398;-82
2022/09/22 07:53:53;;;;;;;6.47;2.35;;;;;;;14.93;57.05;100683.66;4989155;28;20494;-81
2022/09/22 07:56:20;;;;;;;3.13;1.80;;;;;;;14.74;54.80;100638.13;5007336;28;20116;-81
2022/09/22 07:58:50;;;;;;;3.33;1.50;;;;;;;15.38;53.51;100774.69;5007497;28;20037;-81
2022/09/22 08:01:17;;;;;;;3.90;1.52;;;;;;;15.61;53.44;100778.75;5019030;28;20068;-80
2022/09/22 08:03:42;;;;;;;5.10;2.25;;;;;;;14.65;55.38;100625.03;5027567;28;20025;-82
2022/09/22 08:06:10;;;;;;;19.65;1.95;;;;;;;15.74;54.08;100775.06;5008733;28;20568;-79
2022/09/22 08:08:45;;;;;;;6.78;1.90;;;;;;;15.39;52.26;100749.97;5026748;28;20049;-81
2022/09/22 08:11:19;;;;;;;10.38;2.40;;;;;;;14.66;53.93;100666.41;5009161;28;20397;-81
2022/09/22 08:13:56;;;;;;;2.97;1.63;;;;;;;15.54;53.87;100763.84;5027036;28;20073;-81
2022/09/22 08:16:24;;;;;;;4.78;1.67;;;;;;;15.63;54.38;100769.00;5008529;28;20466;-79
2022/09/22 08:18:55;;;;;;;2.58;1.45;;;;;;;15.85;53.21;100736.94;5025694;28;20030;-81
2022/09/22 08:21:25;;;;;;;4.65;2.13;;;;;;;16.15;53.80;100768.19;5021469;28;20623;-79
2022/09/22 08:23:52;;;;;;;14.93;3.08;;;;;;;14.97;54.52;100666.88;5013719;28;20582;-81
2022/09/22 08:26:19;;;;;;;7.13;2.05;;;;;;;15.62;52.92;100736.41;5026746;28;20042;-80
2022/09/22 08:28:46;;;;;;;5.20;3.33;;;;;;;15.42;52.69;100630.03;5038488;28;20030;-78
2022/09/22 08:31:14;;;;;;;9.63;3.70;;;;;;;15.59;52.26;100627.09;5047874;28;20045;-79
2022/09/22 08:33:40;;;;;;;3.38;1.65;;;;;;;16.15;53.99;100769.97;5037262;28;20044;-80
2022/09/22 08:36:06;;;;;;;4.00;2.20;;;;;;;15.43;54.17;100623.88;5009212;28;20080;-81
2022/09/22 08:38:33;;;;;;;6.20;2.67;;;;;;;15.47;51.00;100601.75;5027100;28;20057;-79
2022/09/22 08:41:28;;;;;;;3.30;1.90;;;;;;;16.24;52.11;100764.53;5026162;28;20072;-81
2022/09/22 08:44:01;;;;;;;6.57;1.70;;;;;;;15.87;52.54;100664.56;5025933;28;20152;-78
2022/09/22 08:46:33;;;;;;;3.95;1.75;;;;;;;16.57;51.13;100746.25;5008009;28;20458;-81
2022/09/22 08:52:32;;;;;;;4.18;2.05;;;;;;;16.24;50.07;100740.69;5015622;28;20041;-82
2022/09/22 08:55:01;;;;;;;3.78;1.60;;;;;;;16.09;50.39;100751.56;5015133;28;20048;-82
2022/09/22 08:57:33;;;;;;;4.85;1.45;;;;;;;16.04;51.42;100725.19;5028817;28;20033;-80
2022/09/22 09:00:13;;;;;;;3.47;1.63;;;;;;;16.35;50.08;100735.22;5029961;28;20089;-79
2022/09/22 09:03:09;;;;;;;4.28;1.48;;;;;;;16.22;49.58;100742.50;5029803;28;20084;-80
2022/09/22 09:06:03;;;;;;;12.93;1.45;;;;;;;15.76;50.71;100743.28;5031501;28;20053;-82
2022/09/22 09:08:40;;;;;;;6.18;2.05;;;;;;;16.01;50.21;100735.78;5049047;28;20052;-83
2022/09/22 09:11:36;;;;;;;6.32;1.98;;;;;;;16.25;52.34;100729.22;5024240;28;20405;-81
2022/09/22 09:14:26;;;;;;;3.03;1.58;;;;;;;16.17;50.30;100729.31;5030021;28;20050;-80
2022/09/22 09:17:00;;;;;;;3.22;1.60;;;;;;;15.71;49.08;100642.81;5027880;28;20080;-79
2022/09/22 09:19:39;;;;;;;5.40;2.03;;;;;;;16.36;49.00;100737.81;5029742;28;20042;-80
2022/09/22 09:22:36;;;;;;;4.32;1.67;;;;;;;16.25;49.08;100722.13;5018549;28;20038;-80
2022/09/22 09:25:04;;;;;;;8.23;1.90;;;;;;;16.28;48.78;100729.16;5020515;28;20049;-82
2022/09/22 09:27:35;;;;;;;14.27;3.53;;;;;;;15.48;49.29;100600.88;5030152;28;20215;-81
2022/09/22 09:30:08;;;;;;;9.30;4.88;;;;;;;15.36;50.56;100614.31;5029798;28;20038;-82
2022/09/22 09:32:47;;;;;;;6.95;2.92;;;;;;;16.13;49.77;100719.72;5029515;28;20144;-81
2022/09/22 09:35:16;;;;;;;9.88;2.55;;;;;;;16.19;49.30;100716.06;5011280;28;20610;-79
2022/09/22 09:37:45;;;;;;;6.38;2.80;;;;;;;16.24;50.25;100712.44;5029068;28;20057;-80
2022/09/22 09:40:19;;;;;;;4.70;2.05;;;;;;;15.10;51.36;100575.94;5029206;28;20045;-80
2022/09/22 09:42:55;;;;;;;6.32;2.00;;;;;;;16.04;51.76;100722.53;5029872;28;20038;-80
2022/09/22 09:45:30;;;;;;;5.82;1.65;;;;;;;14.94;50.16;100489.88;5027854;28;20413;-81
2022/09/22 09:48:26;;;;;;;2.97;1.42;;;;;;;15.87;49.82;100706.91;5029010;28;20132;-81
2022/09/22 09:50:51;;;;;;;8.77;1.42;;;;;;;14.89;49.32;100534.88;5027161;28;20046;-80
2022/09/22 09:53:43;;;;;;;2.40;1.25;;;;;;;15.68;49.54;100605.78;5009301;28;20118;-82
2022/09/22 09:56:23;;;;;;;3.33;1.10;;;;;;;16.41;49.80;100684.75;5043167;28;20099;-80
2022/09/22 10:01:53;;;;;;;4.82;2.00;;;;;;;15.94;50.07;100568.28;5034598;28;20072;-80
2022/09/22 10:04:24;;;;;;;10.75;2.92;;;;;;;16.55;50.56;100674.78;5029179;28;20041;-80
2022/09/22 10:06:49;;;;;;;8.55;2.55;;;;;;;16.05;51.08;100570.72;5011311;28;20392;-81
2022/09/22 10:09:28;;;;;;;6.80;2.80;;;;;;;16.64;47.91;100612.75;5016858;28;20049;-81
2022/09/22 10:12:01;;;;;;;13.75;3.88;;;;;;;16.71;48.93;100593.16;5014677;28;20045;-80
2022/09/22 10:14:32;;;;;;;18.15;3.55;;;;;;;17.50;48.66;100699.19;5008736;28;20041;-80
2022/09/22 10:16:58;;;;;;;5.30;2.65;;;;;;;16.41;48.66;100573.50;5007857;28;20050;-80
2022/09/22 10:19:33;;;;;;;8.15;2.67;;;;;;;16.64;49.49;100567.72;4990838;28;20088;-80
2022/09/22 10:22:25;;;;;;;4.18;2.50;;;;;;;17.50;48.57;100695.69;4998143;28;20402;-80
2022/09/22 10:25:01;;;;;;;4.18;2.05;;;;;;;16.72;47.79;100596.72;5004732;28;20034;-79
2022/09/22 10:27:30;;;;;;;7.90;2.65;;;;;;;17.26;48.68;100691.81;5009184;28;20034;-80
2022/09/22 10:30:21;;;;;;;3.95;2.38;;;;;;;17.22;49.60;100691.00;5008287;28;20049;-82
2022/09/22 10:33:05;;;;;;;8.82;2.63;;;;;;;17.12;49.90;100683.31;5008094;28;20050;-82
2022/09/22 10:35:34;;;;;;;9.18;1.80;;;;;;;17.19;50.78;100687.56;5008315;28;20145;-81
2022/09/22 10:38:21;;;;;;;3.20;1.80;;;;;;;16.46;49.61;100553.97;5008325;28;20108;-81
2022/09/22 10:40:54;;;;;;;4.32;1.88;;;;;;;16.96;49.67;100643.88;5008460;28;20061;-80
2022/09/22 10:43:23;;;;;;;;;;;;;;;17.04;48.88;100680.81;4991010;28;20592;-79
2022/09/22 10:46:11;;;;;;;7.25;2.10;;;;;;;17.18;47.97;100686.69;5008631;28;20296;-82
2022/09/22 10:48:52;;;;;;;4.47;2.05;;;;;;;16.99;47.88;100611.13;4997307;28;20046;-80
2022/09/22 10:52:09;;;;;;;3.38;1.83;;;;;;;17.29;47.03;100675.84;5007320;28;20077;-81
2022/09/22 10:54:40;;;;;;;4.05;1.83;;;;;;;17.52;47.34;100684.13;4912036;29;20060;-79
2022/09/22 10:57:29;;;;;;;5.97;1.63;;;;;;;17.09;46.82;100650.66;4927703;29;20048;-81
2022/09/22 11:00:21;;;;;;;7.60;3.25;;;;;;;16.56;47.85;100552.00;4972642;28;20134;-79
2022/09/22 11:03:14;;;;;;;7.18;2.42;;;;;;;17.11;48.26;100666.50;5024962;28;20052;-82
2022/09/22 11:14:28;;;;;;;6.43;2.33;;;;;;;17.32;47.99;100678.41;5027059;28;20103;-79
2022/09/22 11:16:59;;;;;;;;;;;;;;;17.57;47.37;100670.72;5025859;28;20207;-79
2022/09/22 11:19:43;;;;;;;6.10;2.20;;;;;;;17.81;47.07;100658.66;5027887;28;19948;-79
2022/09/22 11:22:27;;;;;;;3.08;1.50;;;;;;;18.16;45.98;100653.31;5017239;28;20034;-79
2022/09/22 11:25:14;;;;;;;4.20;1.50;;;;;;;18.11;46.39;100658.75;5006167;28;20033;-79
2022/09/22 11:28:11;;;;;;;2.25;1.30;;;;;;;18.08;46.29;100630.50;5039891;28;20124;-80
2022/09/22 11:30:57;;;;;;;5.28;2.33;;;;;;;18.13;46.70;100602.03;5016229;28;20529;-78
2022/09/22 11:33:54;;;;;;;7.78;1.98;;;;;;;18.19;47.50;100646.16;5008506;28;20049;-84
2022/09/22 11:36:49;;;;;;;5.15;1.85;;;;;;;18.22;47.06;100629.25;5007135;28;20065;-80
2022/09/22 11:39:37;;;;;;;3.45;1.58;;;;;;;18.50;46.12;100640.81;5000946;28;20058;-79
2022/09/22 11:42:40;;;;;;;4.13;1.33;;;;;;;18.19;46.60;100624.00;5005947;28;20081;-79
2022/09/22 11:45:34;;;;;;;6.25;1.38;;;;;;;18.08;46.87;100638.47;5007662;28;20052;-81
2022/09/22 11:48:28;;;;;;;5.82;2.83;;;;;;;18.47;46.94;100640.03;5019718;28;20041;-83
2022/09/22 11:51:11;;;;;;;3.65;1.70;;;;;;;17.81;45.82;100523.25;5028076;28;20057;-81
2022/09/22 11:53:43;;;;;;;4.00;1.70;;;;;;;18.74;45.35;100633.91;4990314;28;20397;-81
2022/09/22 11:56:30;;;;;;;2.90;1.27;;;;;;;18.59;46.45;100630.81;5008072;28;20077;-82
2022/09/22 11:59:00;;;;;;;8.05;1.50;;;;;;;18.57;45.06;100625.56;5008343;28;20042;-80
2022/09/22 12:01:34;;;;;;;4.88;1.92;;;;;;;18.20;45.18;100514.22;5001550;28;20053;-80